http://www.schuttertalwetter.de (Christian Eisenberg)
Wetterdaten: aktuell Mittwoch, 09.06.2021 18:20
Datum Zeit Temp. A. Luftdruck Regen Wind Richtung Richtung Sonnenschein Solar Windben
09.06.2021 18:20 17,3 C 1020,3 hPa 0,0 l/m 1,6 km/h (1 Bft) S 180 30 min 100 W/m 3,2 km/h (1 Bft)
09.06.2021 17:20 15,8 C 1021,0 hPa 12,2 l/m 6,4 km/h (2 Bft) S 180 0 min 134 W/m 9,7 km/h (2 Bft)
09.06.2021 16:20 17,0 C 1020,3 hPa 2,0 l/m 16,1 km/h (3 Bft) S-SO 157 0 min 58 W/m 25,7 km/h (4 Bft)
09.06.2021 15:20 24,4 C 1019,5 hPa 0,0 l/m 4,8 km/h (1 Bft) N 360 30 min 211 W/m 9,7 km/h (2 Bft)
09.06.2021 14:20 25,2 C 1020,0 hPa 0,0 l/m 4,8 km/h (1 Bft) N 360 55 min 1035 W/m 11,3 km/h (2 Bft)
09.06.2021 13:20 24,4 C 1020,4 hPa 0,0 l/m 8,0 km/h (2 Bft) NW 315 60 min 918 W/m 16,1 km/h (3 Bft)
09.06.2021 12:20 23,7 C 1020,8 hPa 0,0 l/m 4,8 km/h (1 Bft) N 360 60 min 898 W/m 16,1 km/h (3 Bft)
09.06.2021 11:20 22,4 C 1021,1 hPa 0,0 l/m 1,6 km/h (1 Bft) W-NW 292 60 min 782 W/m 6,4 km/h (2 Bft)
09.06.2021 10:20 20,5 C 1021,2 hPa 0,0 l/m 0,0 km/h (0 Bft) N 360 60 min 656 W/m 1,6 km/h (1 Bft)
09.06.2021 09:20 18,0 C 1021,3 hPa 0,0 l/m 1,6 km/h (1 Bft) O 90 60 min 431 W/m 4,8 km/h (1 Bft)
09.06.2021 08:20 15,3 C 1021,3 hPa 0,0 l/m 0,0 km/h (0 Bft) S 180 55 min 311 W/m 1,6 km/h (1 Bft)
09.06.2021 07:20 13,2 C 1021,3 hPa 0,0 l/m 0,0 km/h (0 Bft) S 180 10 min 155 W/m 1,6 km/h (1 Bft)
09.06.2021 06:20 12,2 C 1021,2 hPa 0,0 l/m 0,0 km/h (0 Bft) N 0 0 min 33 W/m 0,0 km/h (0 Bft)
09.06.2021 05:20 12,6 C 1021,1 hPa 0,0 l/m 0,0 km/h (0 Bft) N 0 0 min 0 W/m 0,0 km/h (0 Bft)
09.06.2021 04:20 13,4 C 1021,2 hPa 0,0 l/m 0,0 km/h (0 Bft) S 180 0 min 0 W/m 1,6 km/h (1 Bft)
09.06.2021 03:20 13,5 C 1021,4 hPa 0,0 l/m 0,0 km/h (0 Bft) S 180 0 min 0 W/m 1,6 km/h (1 Bft)
09.06.2021 02:20 13,9 C 1021,2 hPa 0,0 l/m 0,0 km/h (0 Bft) N 0 0 min 0 W/m 0,0 km/h (0 Bft)
09.06.2021 01:20 14,8 C 1021,0 hPa 0,0 l/m 1,6 km/h (1 Bft) S-SO 157 0 min 0 W/m 4,8 km/h (1 Bft)
09.06.2021 00:20 15,0 C 1021,3 hPa 0,0 l/m 1,6 km/h (1 Bft) S-SO 157 0 min 0 W/m 4,8 km/h (1 Bft)
08.06.2021 23:20 14,8 C 1021,3 hPa 0,0 l/m 0,0 km/h (0 Bft) S-SO 157 0 min 0 W/m 1,6 km/h (1 Bft)
08.06.2021 22:20 15,6 C 1021,2 hPa 0,0 l/m 4,8 km/h (1 Bft) S-SO 157 0 min 0 W/m 6,4 km/h (2 Bft)
08.06.2021 21:20 16,0 C 1020,5 hPa 0,0 l/m 6,4 km/h (2 Bft) S-SO 157 10 min 9 W/m 9,7 km/h (2 Bft)
08.06.2021 20:20 17,8 C 1020,4 hPa 2,2 l/m 6,4 km/h (2 Bft) S 180 0 min 40 W/m 11,3 km/h (2 Bft)
08.06.2021 19:20 20,3 C 1019,6 hPa 7,6 l/m 1,6 km/h (1 Bft) N-NW 337 10 min 121 W/m 6,4 km/h (2 Bft)
08.06.2021 19:00 22,2 C 1019,4 hPa 0,0 l/m 11,3 km/h (2 Bft) NW 315 0 min 258 W/m 20,9 km/h (4 Bft)
_ Min-Zeit 06:15 15:10 - 18:15 - - - - 18:10
Minimum _ 12,1 C 1019,4 hPa - 0,0 km/h (0 Bft) - - - - 0,0 km/h (0 Bft)
_ Max-Zeit 14:40 02:55 16:35 16:30 - - 18:00 13:45 16:30
Maximum _ 25,4 C 1021,5 hPa 5,4 l/m 17,7 km/h
NW (3 Bft)
- - 5 min 1215 W/m 32,2 km/h
N-NW (5 Bft)
Durchschnitt _ 17,7 C 1020,7 hPa #24,0 l/m 3,7 km/h (1 Bft) S-SO - #8:00 h 446 W/m 7,9 km/h (2 Bft)